sensor_id;sensor_type;location;lat;lon;timestamp;temperature;humidity
52656;SHT85;35474;51.032;6.998;2022-10-30T00:00:35;17.41;70.62
52656;SHT85;35474;51.032;6.998;2022-10-30T00:03:02;17.36;70.61
52656;SHT85;35474;51.032;6.998;2022-10-30T00:05:29;17.38;70.61
52656;SHT85;35474;51.032;6.998;2022-10-30T00:07:56;17.44;70.55
52656;SHT85;35474;51.032;6.998;2022-10-30T00:10:23;17.33;70.69
52656;SHT85;35474;51.032;6.998;2022-10-30T00:12:50;17.33;70.90
52656;SHT85;35474;51.032;6.998;2022-10-30T00:15:17;17.36;70.65
52656;SHT85;35474;51.032;6.998;2022-10-30T00:17:43;17.37;70.84
52656;SHT85;35474;51.032;6.998;2022-10-30T00:20:10;17.27;71.02
52656;SHT85;35474;51.032;6.998;2022-10-30T00:22:36;17.26;71.07
52656;SHT85;35474;51.032;6.998;2022-10-30T00:25:03;17.20;71.38
52656;SHT85;35474;51.032;6.998;2022-10-30T00:27:30;17.20;71.39
52656;SHT85;35474;51.032;6.998;2022-10-30T00:29:57;17.13;71.71
52656;SHT85;35474;51.032;6.998;2022-10-30T00:32:24;17.11;71.64
52656;SHT85;35474;51.032;6.998;2022-10-30T00:34:50;17.16;71.49
52656;SHT85;35474;51.032;6.998;2022-10-30T00:37:17;17.03;71.99
52656;SHT85;35474;51.032;6.998;2022-10-30T00:39:43;17.04;71.88
52656;SHT85;35474;51.032;6.998;2022-10-30T00:42:13;16.93;72.21
52656;SHT85;35474;51.032;6.998;2022-10-30T00:47:17;16.95;72.39
52656;SHT85;35474;51.032;6.998;2022-10-30T00:49:55;16.88;72.70
52656;SHT85;35474;51.032;6.998;2022-10-30T00:52:25;16.83;72.71
52656;SHT85;35474;51.032;6.998;2022-10-30T00:54:55;16.82;72.90
52656;SHT85;35474;51.032;6.998;2022-10-30T00:57:24;16.73;73.16
52656;SHT85;35474;51.032;6.998;2022-10-30T00:59:51;16.72;73.21
52656;SHT85;35474;51.032;6.998;2022-10-30T01:02:19;16.69;73.46
52656;SHT85;35474;51.032;6.998;2022-10-30T01:04:47;16.75;73.42
52656;SHT85;35474;51.032;6.998;2022-10-30T01:07:16;16.71;73.36
52656;SHT85;35474;51.032;6.998;2022-10-30T01:09:43;16.71;73.56
52656;SHT85;35474;51.032;6.998;2022-10-30T01:12:12;16.65;73.55
52656;SHT85;35474;51.032;6.998;2022-10-30T01:14:42;16.62;73.74
52656;SHT85;35474;51.032;6.998;2022-10-30T01:17:19;16.65;73.57
52656;SHT85;35474;51.032;6.998;2022-10-30T01:28:49;16.59;74.04
52656;SHT85;35474;51.032;6.998;2022-10-30T01:34:15;16.49;74.39
52656;SHT85;35474;51.032;6.998;2022-10-30T01:36:47;16.45;74.77
52656;SHT85;35474;51.032;6.998;2022-10-30T01:39:21;16.40;74.93
52656;SHT85;35474;51.032;6.998;2022-10-30T01:41:51;16.27;75.23
52656;SHT85;35474;51.032;6.998;2022-10-30T01:44:23;16.30;75.19
52656;SHT85;35474;51.032;6.998;2022-10-30T02:00:32;16.07;76.16
52656;SHT85;35474;51.032;6.998;2022-10-30T02:02:59;15.94;76.68
52656;SHT85;35474;51.032;6.998;2022-10-30T02:05:32;15.96;76.68
52656;SHT85;35474;51.032;6.998;2022-10-30T02:08:04;15.89;76.86
52656;SHT85;35474;51.032;6.998;2022-10-30T02:10:30;15.85;77.04
52656;SHT85;35474;51.032;6.998;2022-10-30T02:12:59;15.80;77.31
52656;SHT85;35474;51.032;6.998;2022-10-30T02:15:26;15.69;77.47
52656;SHT85;35474;51.032;6.998;2022-10-30T02:17:54;15.69;77.76
52656;SHT85;35474;51.032;6.998;2022-10-30T02:20:22;15.56;78.11
52656;SHT85;35474;51.032;6.998;2022-10-30T02:22:49;15.42;78.62
52656;SHT85;35474;51.032;6.998;2022-10-30T02:25:23;15.34;78.84
52656;SHT85;35474;51.032;6.998;2022-10-30T02:27:49;15.18;79.83
52656;SHT85;35474;51.032;6.998;2022-10-30T02:30:16;15.24;79.67
52656;SHT85;35474;51.032;6.998;2022-10-30T02:32:42;15.12;79.81
52656;SHT85;35474;51.032;6.998;2022-10-30T02:35:09;15.05;80.03
52656;SHT85;35474;51.032;6.998;2022-10-30T02:37:35;15.07;80.02
52656;SHT85;35474;51.032;6.998;2022-10-30T02:40:02;15.04;79.80
52656;SHT85;35474;51.032;6.998;2022-10-30T02:42:29;15.05;79.93
52656;SHT85;35474;51.032;6.998;2022-10-30T02:44:57;15.17;79.40
52656;SHT85;35474;51.032;6.998;2022-10-30T02:47:23;15.27;79.00
52656;SHT85;35474;51.032;6.998;2022-10-30T02:49:50;15.04;79.76
52656;SHT85;35474;51.032;6.998;2022-10-30T02:52:16;14.97;80.02
52656;SHT85;35474;51.032;6.998;2022-10-30T02:54:45;15.03;79.92
52656;SHT85;35474;51.032;6.998;2022-10-30T02:57:12;15.14;79.63
52656;SHT85;35474;51.032;6.998;2022-10-30T02:59:38;14.77;80.18
52656;SHT85;35474;51.032;6.998;2022-10-30T03:02:05;14.60;80.94
52656;SHT85;35474;51.032;6.998;2022-10-30T03:04:31;14.40;81.71
52656;SHT85;35474;51.032;6.998;2022-10-30T03:06:59;14.32;81.98
52656;SHT85;35474;51.032;6.998;2022-10-30T03:09:25;14.33;81.82
52656;SHT85;35474;51.032;6.998;2022-10-30T03:11:51;14.22;82.60
52656;SHT85;35474;51.032;6.998;2022-10-30T03:14:19;14.53;82.34
52656;SHT85;35474;51.032;6.998;2022-10-30T03:16:45;14.77;81.22
52656;SHT85;35474;51.032;6.998;2022-10-30T03:19:12;14.70;80.93
52656;SHT85;35474;51.032;6.998;2022-10-30T03:21:38;14.40;81.37
52656;SHT85;35474;51.032;6.998;2022-10-30T03:24:05;14.22;81.99
52656;SHT85;35474;51.032;6.998;2022-10-30T03:26:31;14.22;82.89
52656;SHT85;35474;51.032;6.998;2022-10-30T03:28:58;14.39;82.53
52656;SHT85;35474;51.032;6.998;2022-10-30T03:31:24;14.14;82.59
52656;SHT85;35474;51.032;6.998;2022-10-30T03:33:50;14.06;83.01
52656;SHT85;35474;51.032;6.998;2022-10-30T03:36:17;14.05;83.23
52656;SHT85;35474;51.032;6.998;2022-10-30T03:38:43;13.77;83.77
52656;SHT85;35474;51.032;6.998;2022-10-30T03:41:10;13.81;83.93
52656;SHT85;35474;51.032;6.998;2022-10-30T03:43:36;13.70;84.26
52656;SHT85;35474;51.032;6.998;2022-10-30T03:46:03;13.63;84.53
52656;SHT85;35474;51.032;6.998;2022-10-30T03:48:30;13.60;84.46
52656;SHT85;35474;51.032;6.998;2022-10-30T03:50:57;13.75;85.05
52656;SHT85;35474;51.032;6.998;2022-10-30T03:53:25;13.48;85.09
52656;SHT85;35474;51.032;6.998;2022-10-30T03:55:57;13.47;85.49
52656;SHT85;35474;51.032;6.998;2022-10-30T03:58:26;13.84;85.31
52656;SHT85;35474;51.032;6.998;2022-10-30T04:00:53;13.80;84.43
52656;SHT85;35474;51.032;6.998;2022-10-30T04:03:20;13.56;84.64
52656;SHT85;35474;51.032;6.998;2022-10-30T04:05:47;13.46;85.13
52656;SHT85;35474;51.032;6.998;2022-10-30T04:08:18;13.40;85.38
52656;SHT85;35474;51.032;6.998;2022-10-30T04:10:48;13.36;85.41
52656;SHT85;35474;51.032;6.998;2022-10-30T04:13:15;13.37;85.25
52656;SHT85;35474;51.032;6.998;2022-10-30T04:15:42;13.26;85.79
52656;SHT85;35474;51.032;6.998;2022-10-30T04:18:12;13.26;85.92
52656;SHT85;35474;51.032;6.998;2022-10-30T04:20:41;13.16;86.02
52656;SHT85;35474;51.032;6.998;2022-10-30T04:23:11;13.18;85.87
52656;SHT85;35474;51.032;6.998;2022-10-30T04:25:41;13.09;85.97
52656;SHT85;35474;51.032;6.998;2022-10-30T04:28:09;13.09;86.65
52656;SHT85;35474;51.032;6.998;2022-10-30T04:30:36;13.05;86.33
52656;SHT85;35474;51.032;6.998;2022-10-30T04:33:05;13.03;86.86
52656;SHT85;35474;51.032;6.998;2022-10-30T04:35:35;13.03;86.89
52656;SHT85;35474;51.032;6.998;2022-10-30T04:38:03;13.06;86.50
52656;SHT85;35474;51.032;6.998;2022-10-30T04:40:32;13.02;86.42
52656;SHT85;35474;51.032;6.998;2022-10-30T04:43:00;12.86;86.97
52656;SHT85;35474;51.032;6.998;2022-10-30T04:45:28;12.88;86.99
52656;SHT85;35474;51.032;6.998;2022-10-30T04:48:00;12.79;87.44
52656;SHT85;35474;51.032;6.998;2022-10-30T04:50:31;12.85;87.37
52656;SHT85;35474;51.032;6.998;2022-10-30T04:53:06;12.86;87.26
52656;SHT85;35474;51.032;6.998;2022-10-30T04:55:40;12.82;87.32
52656;SHT85;35474;51.032;6.998;2022-10-30T04:58:07;12.82;87.07
52656;SHT85;35474;51.032;6.998;2022-10-30T05:00:36;12.78;87.43
52656;SHT85;35474;51.032;6.998;2022-10-30T05:03:02;12.61;87.47
52656;SHT85;35474;51.032;6.998;2022-10-30T05:05:29;12.58;87.55
52656;SHT85;35474;51.032;6.998;2022-10-30T05:07:56;12.75;87.67
52656;SHT85;35474;51.032;6.998;2022-10-30T05:10:23;12.69;87.64
52656;SHT85;35474;51.032;6.998;2022-10-30T05:12:50;12.55;87.72
52656;SHT85;35474;51.032;6.998;2022-10-30T05:15:18;12.68;87.78
52656;SHT85;35474;51.032;6.998;2022-10-30T05:17:45;12.79;87.46
52656;SHT85;35474;51.032;6.998;2022-10-30T05:20:11;12.72;87.51
52656;SHT85;35474;51.032;6.998;2022-10-30T05:22:44;12.58;87.62
52656;SHT85;35474;51.032;6.998;2022-10-30T05:25:10;12.55;87.87
52656;SHT85;35474;51.032;6.998;2022-10-30T05:27:37;12.53;88.03
52656;SHT85;35474;51.032;6.998;2022-10-30T05:30:03;12.37;88.30
52656;SHT85;35474;51.032;6.998;2022-10-30T05:32:30;12.58;88.36
52656;SHT85;35474;51.032;6.998;2022-10-30T05:34:56;12.61;88.09
52656;SHT85;35474;51.032;6.998;2022-10-30T05:37:23;12.67;87.89
52656;SHT85;35474;51.032;6.998;2022-10-30T05:39:50;12.69;87.83
52656;SHT85;35474;51.032;6.998;2022-10-30T05:42:16;12.69;87.77
52656;SHT85;35474;51.032;6.998;2022-10-30T05:44:43;12.72;87.62
52656;SHT85;35474;51.032;6.998;2022-10-30T05:47:27;12.75;87.59
52656;SHT85;35474;51.032;6.998;2022-10-30T05:49:54;12.54;87.73
52656;SHT85;35474;51.032;6.998;2022-10-30T05:52:20;12.60;87.88
52656;SHT85;35474;51.032;6.998;2022-10-30T05:54:47;12.65;87.36
52656;SHT85;35474;51.032;6.998;2022-10-30T05:57:13;12.67;87.53
52656;SHT85;35474;51.032;6.998;2022-10-30T05:59:39;12.69;87.54
52656;SHT85;35474;51.032;6.998;2022-10-30T06:02:06;12.60;87.26
52656;SHT85;35474;51.032;6.998;2022-10-30T06:04:34;12.57;87.13
52656;SHT85;35474;51.032;6.998;2022-10-30T06:07:00;12.57;87.78
52656;SHT85;35474;51.032;6.998;2022-10-30T06:09:27;12.36;87.87
52656;SHT85;35474;51.032;6.998;2022-10-30T06:11:53;12.27;88.00
52656;SHT85;35474;51.032;6.998;2022-10-30T06:14:20;12.20;88.33
52656;SHT85;35474;51.032;6.998;2022-10-30T06:16:47;12.40;88.07
52656;SHT85;35474;51.032;6.998;2022-10-30T06:19:14;12.30;87.80
52656;SHT85;35474;51.032;6.998;2022-10-30T06:21:44;12.17;88.33
52656;SHT85;35474;51.032;6.998;2022-10-30T06:24:10;12.16;88.42
52656;SHT85;35474;51.032;6.998;2022-10-30T06:26:37;12.26;88.47
52656;SHT85;35474;51.032;6.998;2022-10-30T06:29:04;12.20;88.25
52656;SHT85;35474;51.032;6.998;2022-10-30T06:31:30;12.21;88.68
52656;SHT85;35474;51.032;6.998;2022-10-30T06:33:57;12.26;88.38
52656;SHT85;35474;51.032;6.998;2022-10-30T06:36:23;12.17;88.45
52656;SHT85;35474;51.032;6.998;2022-10-30T06:38:50;12.13;88.51
52656;SHT85;35474;51.032;6.998;2022-10-30T06:41:16;12.21;88.41
52656;SHT85;35474;51.032;6.998;2022-10-30T06:43:43;12.38;88.30
52656;SHT85;35474;51.032;6.998;2022-10-30T06:46:09;12.43;87.93
52656;SHT85;35474;51.032;6.998;2022-10-30T06:48:35;12.31;88.05
52656;SHT85;35474;51.032;6.998;2022-10-30T06:51:02;12.36;88.20
52656;SHT85;35474;51.032;6.998;2022-10-30T06:53:28;12.47;87.89
52656;SHT85;35474;51.032;6.998;2022-10-30T06:55:59;12.57;87.66
52656;SHT85;35474;51.032;6.998;2022-10-30T06:58:26;12.68;87.55
52656;SHT85;35474;51.032;6.998;2022-10-30T07:00:58;12.98;86.68
52656;SHT85;35474;51.032;6.998;2022-10-30T07:03:25;13.29;85.41
52656;SHT85;35474;51.032;6.998;2022-10-30T07:05:52;13.39;85.45
52656;SHT85;35474;51.032;6.998;2022-10-30T07:08:19;13.47;84.75
52656;SHT85;35474;51.032;6.998;2022-10-30T07:10:45;14.00;83.87
52656;SHT85;35474;51.032;6.998;2022-10-30T07:13:12;14.22;82.61
52656;SHT85;35474;51.032;6.998;2022-10-30T07:15:38;14.63;81.18
52656;SHT85;35474;51.032;6.998;2022-10-30T07:18:05;14.69;80.04
52656;SHT85;35474;51.032;6.998;2022-10-30T07:20:33;15.01;79.32
52656;SHT85;35474;51.032;6.998;2022-10-30T07:23:00;15.27;78.82
52656;SHT85;35474;51.032;6.998;2022-10-30T07:25:27;15.46;77.27
52656;SHT85;35474;51.032;6.998;2022-10-30T07:27:55;15.66;76.80
52656;SHT85;35474;51.032;6.998;2022-10-30T07:32:35;15.61;76.41
52656;SHT85;35474;51.032;6.998;2022-10-30T07:35:01;15.91;75.77
52656;SHT85;35474;51.032;6.998;2022-10-30T07:37:28;15.70;76.23
52656;SHT85;35474;51.032;6.998;2022-10-30T07:39:55;15.89;75.96
52656;SHT85;35474;51.032;6.998;2022-10-30T07:42:21;16.49;74.53
52656;SHT85;35474;51.032;6.998;2022-10-30T07:44:48;16.73;73.66
52656;SHT85;35474;51.032;6.998;2022-10-30T07:47:16;16.48;73.82
52656;SHT85;35474;51.032;6.998;2022-10-30T07:49:43;16.64;72.83
52656;SHT85;35474;51.032;6.998;2022-10-30T07:52:12;16.34;73.85
52656;SHT85;35474;51.032;6.998;2022-10-30T07:54:42;16.45;74.10
52656;SHT85;35474;51.032;6.998;2022-10-30T07:57:09;16.59;73.24
52656;SHT85;35474;51.032;6.998;2022-10-30T07:59:35;16.61;73.93
52656;SHT85;35474;51.032;6.998;2022-10-30T08:02:02;16.16;74.96
52656;SHT85;35474;51.032;6.998;2022-10-30T08:04:28;16.41;74.18
52656;SHT85;35474;51.032;6.998;2022-10-30T08:06:55;17.24;71.83
52656;SHT85;35474;51.032;6.998;2022-10-30T08:09:21;17.00;73.06
52656;SHT85;35474;51.032;6.998;2022-10-30T08:11:48;17.44;71.33
52656;SHT85;35474;51.032;6.998;2022-10-30T08:14:14;17.54;70.47
52656;SHT85;35474;51.032;6.998;2022-10-30T08:16:42;18.09;69.16
52656;SHT85;35474;51.032;6.998;2022-10-30T08:19:08;17.82;69.87
52656;SHT85;35474;51.032;6.998;2022-10-30T08:21:34;17.46;70.49
52656;SHT85;35474;51.032;6.998;2022-10-30T08:24:03;17.19;71.91
52656;SHT85;35474;51.032;6.998;2022-10-30T08:26:30;17.86;70.12
52656;SHT85;35474;51.032;6.998;2022-10-30T08:28:57;18.67;69.09
52656;SHT85;35474;51.032;6.998;2022-10-30T08:31:23;19.29;66.30
52656;SHT85;35474;51.032;6.998;2022-10-30T08:33:50;19.31;65.64
52656;SHT85;35474;51.032;6.998;2022-10-30T08:36:16;19.15;65.47
52656;SHT85;35474;51.032;6.998;2022-10-30T08:38:42;18.89;65.82
52656;SHT85;35474;51.032;6.998;2022-10-30T08:41:09;18.56;67.80
52656;SHT85;35474;51.032;6.998;2022-10-30T08:43:38;18.34;68.11
52656;SHT85;35474;51.032;6.998;2022-10-30T08:46:04;18.41;68.37
52656;SHT85;35474;51.032;6.998;2022-10-30T08:48:31;18.13;68.78
52656;SHT85;35474;51.032;6.998;2022-10-30T08:50:57;18.34;68.25
52656;SHT85;35474;51.032;6.998;2022-10-30T08:53:26;18.64;67.96
52656;SHT85;35474;51.032;6.998;2022-10-30T08:55:52;18.67;67.72
52656;SHT85;35474;51.032;6.998;2022-10-30T08:58:19;19.06;65.94
52656;SHT85;35474;51.032;6.998;2022-10-30T09:00:46;18.39;68.07
52656;SHT85;35474;51.032;6.998;2022-10-30T09:03:12;18.64;67.72
52656;SHT85;35474;51.032;6.998;2022-10-30T09:05:39;18.54;67.50
52656;SHT85;35474;51.032;6.998;2022-10-30T09:08:08;18.41;68.00
52656;SHT85;35474;51.032;6.998;2022-10-30T09:10:34;18.58;67.92
52656;SHT85;35474;51.032;6.998;2022-10-30T09:13:01;19.06;66.32
52656;SHT85;35474;51.032;6.998;2022-10-30T09:15:28;19.25;65.91
52656;SHT85;35474;51.032;6.998;2022-10-30T09:17:56;19.43;65.22
52656;SHT85;35474;51.032;6.998;2022-10-30T09:20:24;19.91;63.98
52656;SHT85;35474;51.032;6.998;2022-10-30T09:22:51;20.32;63.04
52656;SHT85;35474;51.032;6.998;2022-10-30T09:25:17;21.11;60.52
52656;SHT85;35474;51.032;6.998;2022-10-30T09:27:44;20.38;62.22
52656;SHT85;35474;51.032;6.998;2022-10-30T09:30:14;19.88;63.20
52656;SHT85;35474;51.032;6.998;2022-10-30T09:32:40;20.10;62.93
52656;SHT85;35474;51.032;6.998;2022-10-30T09:35:07;20.32;62.49
52656;SHT85;35474;51.032;6.998;2022-10-30T09:37:37;20.13;61.60
52656;SHT85;35474;51.032;6.998;2022-10-30T09:40:05;19.71;63.09
52656;SHT85;35474;51.032;6.998;2022-10-30T09:45:25;20.10;62.98
52656;SHT85;35474;51.032;6.998;2022-10-30T09:51:09;21.16;59.19
52656;SHT85;35474;51.032;6.998;2022-10-30T09:56:38;22.03;56.43
52656;SHT85;35474;51.032;6.998;2022-10-30T10:02:20;22.53;55.89
52656;SHT85;35474;51.032;6.998;2022-10-30T10:07:44;20.99;60.09
52656;SHT85;35474;51.032;6.998;2022-10-30T10:10:19;21.04;59.67
52656;SHT85;35474;51.032;6.998;2022-10-30T10:12:54;22.12;57.84
52656;SHT85;35474;51.032;6.998;2022-10-30T10:15:31;21.89;57.79
52656;SHT85;35474;51.032;6.998;2022-10-30T10:17:59;21.17;59.47
52656;SHT85;35474;51.032;6.998;2022-10-30T10:20:31;21.58;58.61
52656;SHT85;35474;51.032;6.998;2022-10-30T10:23:03;21.32;58.52
52656;SHT85;35474;51.032;6.998;2022-10-30T10:25:52;20.99;59.49
52656;SHT85;35474;51.032;6.998;2022-10-30T10:28:26;21.31;58.62
52656;SHT85;35474;51.032;6.998;2022-10-30T10:31:15;21.50;58.18
52656;SHT85;35474;51.032;6.998;2022-10-30T10:33:58;21.42;59.35
52656;SHT85;35474;51.032;6.998;2022-10-30T10:36:38;20.93;59.66
52656;SHT85;35474;51.032;6.998;2022-10-30T10:39:48;21.21;59.50
52656;SHT85;35474;51.032;6.998;2022-10-30T10:42:35;21.23;59.24
52656;SHT85;35474;51.032;6.998;2022-10-30T10:45:21;21.13;59.86
52656;SHT85;35474;51.032;6.998;2022-10-30T10:48:23;21.64;58.50
52656;SHT85;35474;51.032;6.998;2022-10-30T10:51:05;21.68;57.94
52656;SHT85;35474;51.032;6.998;2022-10-30T10:53:45;22.08;57.29
52656;SHT85;35474;51.032;6.998;2022-10-30T10:56:20;21.89;58.01
52656;SHT85;35474;51.032;6.998;2022-10-30T10:59:03;21.83;57.87
52656;SHT85;35474;51.032;6.998;2022-10-30T11:01:38;22.67;56.40
52656;SHT85;35474;51.032;6.998;2022-10-30T11:07:24;22.67;56.30
52656;SHT85;35474;51.032;6.998;2022-10-30T11:09:58;22.64;55.95
52656;SHT85;35474;51.032;6.998;2022-10-30T11:12:28;22.67;55.57
52656;SHT85;35474;51.032;6.998;2022-10-30T11:17:44;22.51;57.58
52656;SHT85;35474;51.032;6.998;2022-10-30T11:20:20;23.94;53.94
52656;SHT85;35474;51.032;6.998;2022-10-30T11:22:52;23.86;53.65
52656;SHT85;35474;51.032;6.998;2022-10-30T11:25:25;23.62;54.80
52656;SHT85;35474;51.032;6.998;2022-10-30T11:28:00;22.68;56.38
52656;SHT85;35474;51.032;6.998;2022-10-30T11:30:29;23.32;55.10
52656;SHT85;35474;51.032;6.998;2022-10-30T11:32:56;23.34;54.84
52656;SHT85;35474;51.032;6.998;2022-10-30T11:35:24;22.98;54.88
52656;SHT85;35474;51.032;6.998;2022-10-30T11:38:10;22.88;55.22
52656;SHT85;35474;51.032;6.998;2022-10-30T11:40:45;23.42;55.15
52656;SHT85;35474;51.032;6.998;2022-10-30T11:43:14;23.58;54.00
52656;SHT85;35474;51.032;6.998;2022-10-30T11:45:45;23.28;55.40
52656;SHT85;35474;51.032;6.998;2022-10-30T11:48:18;23.83;53.99
52656;SHT85;35474;51.032;6.998;2022-10-30T11:50:49;23.62;53.01
52656;SHT85;35474;51.032;6.998;2022-10-30T11:53:21;23.22;54.20
52656;SHT85;35474;51.032;6.998;2022-10-30T11:55:56;23.22;54.23
52656;SHT85;35474;51.032;6.998;2022-10-30T11:58:33;23.84;53.51
52656;SHT85;35474;51.032;6.998;2022-10-30T12:03:38;23.77;52.71
52656;SHT85;35474;51.032;6.998;2022-10-30T12:06:08;23.55;53.24
52656;SHT85;35474;51.032;6.998;2022-10-30T12:08:56;23.34;53.36
52656;SHT85;35474;51.032;6.998;2022-10-30T12:11:31;23.29;53.71
52656;SHT85;35474;51.032;6.998;2022-10-30T12:13:59;23.14;53.43
52656;SHT85;35474;51.032;6.998;2022-10-30T12:16:26;23.46;53.56
52656;SHT85;35474;51.032;6.998;2022-10-30T12:18:58;23.59;53.13
52656;SHT85;35474;51.032;6.998;2022-10-30T12:21:26;24.00;52.10
52656;SHT85;35474;51.032;6.998;2022-10-30T12:23:59;23.34;52.10
52656;SHT85;35474;51.032;6.998;2022-10-30T12:26:32;23.16;53.03
52656;SHT85;35474;51.032;6.998;2022-10-30T12:29:02;23.25;53.18
52656;SHT85;35474;51.032;6.998;2022-10-30T12:31:37;23.05;53.87
52656;SHT85;35474;51.032;6.998;2022-10-30T12:42:36;23.05;54.27
52656;SHT85;35474;51.032;6.998;2022-10-30T12:45:11;22.92;54.33
52656;SHT85;35474;51.032;6.998;2022-10-30T12:47:49;22.80;54.71
52656;SHT85;35474;51.032;6.998;2022-10-30T12:50:24;22.71;54.53
52656;SHT85;35474;51.032;6.998;2022-10-30T12:53:01;22.66;54.96
52656;SHT85;35474;51.032;6.998;2022-10-30T12:55:44;22.61;54.68
52656;SHT85;35474;51.032;6.998;2022-10-30T12:58:20;22.66;54.99
52656;SHT85;35474;51.032;6.998;2022-10-30T13:03:45;22.68;54.35
52656;SHT85;35474;51.032;6.998;2022-10-30T13:06:27;22.70;54.33
52656;SHT85;35474;51.032;6.998;2022-10-30T13:11:47;22.87;54.17
52656;SHT85;35474;51.032;6.998;2022-10-30T13:14:19;22.85;54.00
52656;SHT85;35474;51.032;6.998;2022-10-30T13:16:52;23.02;53.72
52656;SHT85;35474;51.032;6.998;2022-10-30T13:19:18;22.97;53.62
52656;SHT85;35474;51.032;6.998;2022-10-30T13:24:47;23.04;53.17
52656;SHT85;35474;51.032;6.998;2022-10-30T13:27:33;23.01;53.30
52656;SHT85;35474;51.032;6.998;2022-10-30T13:30:11;23.05;53.34
52656;SHT85;35474;51.032;6.998;2022-10-30T13:33:00;23.19;52.64
52656;SHT85;35474;51.032;6.998;2022-10-30T13:35:55;23.52;52.20
52656;SHT85;35474;51.032;6.998;2022-10-30T13:52:14;23.56;52.59
52656;SHT85;35474;51.032;6.998;2022-10-30T13:54:53;23.52;52.73
52656;SHT85;35474;51.032;6.998;2022-10-30T14:06:01;23.08;53.87
52656;SHT85;35474;51.032;6.998;2022-10-30T14:08:47;23.08;53.88
52656;SHT85;35474;51.032;6.998;2022-10-30T14:11:20;23.05;53.85
52656;SHT85;35474;51.032;6.998;2022-10-30T14:13:56;23.05;53.45
52656;SHT85;35474;51.032;6.998;2022-10-30T14:16:33;23.04;52.75
52656;SHT85;35474;51.032;6.998;2022-10-30T14:19:03;22.91;53.02
52656;SHT85;35474;51.032;6.998;2022-10-30T14:24:31;22.80;52.22
52656;SHT85;35474;51.032;6.998;2022-10-30T14:29:30;22.59;52.33
52656;SHT85;35474;51.032;6.998;2022-10-30T14:32:30;22.51;53.00
52656;SHT85;35474;51.032;6.998;2022-10-30T14:39:53;22.33;53.09
52656;SHT85;35474;51.032;6.998;2022-10-30T14:53:01;21.99;54.52
52656;SHT85;35474;51.032;6.998;2022-10-30T14:58:25;21.83;55.02
52656;SHT85;35474;51.032;6.998;2022-10-30T15:06:13;21.71;54.56
52656;SHT85;35474;51.032;6.998;2022-10-30T15:14:18;21.44;55.17
52656;SHT85;35474;51.032;6.998;2022-10-30T15:17:31;21.42;55.41
52656;SHT85;35474;51.032;6.998;2022-10-30T15:20:07;21.47;55.21
52656;SHT85;35474;51.032;6.998;2022-10-30T15:22:41;21.54;55.12
52656;SHT85;35474;51.032;6.998;2022-10-30T15:25:13;21.62;54.86
52656;SHT85;35474;51.032;6.998;2022-10-30T15:27:45;21.55;55.13
52656;SHT85;35474;51.032;6.998;2022-10-30T15:30:17;21.52;55.23
52656;SHT85;35474;51.032;6.998;2022-10-30T15:32:45;21.44;55.54
52656;SHT85;35474;51.032;6.998;2022-10-30T15:35:13;21.35;55.99
52656;SHT85;35474;51.032;6.998;2022-10-30T15:40:30;21.06;57.02
52656;SHT85;35474;51.032;6.998;2022-10-30T15:43:00;20.96;57.49
52656;SHT85;35474;51.032;6.998;2022-10-30T15:48:04;20.79;58.19
52656;SHT85;35474;51.032;6.998;2022-10-30T15:50:34;20.68;58.67
52656;SHT85;35474;51.032;6.998;2022-10-30T15:53:15;20.63;58.84
52656;SHT85;35474;51.032;6.998;2022-10-30T15:55:47;20.51;59.14
52656;SHT85;35474;51.032;6.998;2022-10-30T15:58:16;20.38;59.70
52656;SHT85;35474;51.032;6.998;2022-10-30T16:00:53;20.31;60.07
52656;SHT85;35474;51.032;6.998;2022-10-30T16:03:22;20.24;60.35
52656;SHT85;35474;51.032;6.998;2022-10-30T16:05:48;20.14;60.69
52656;SHT85;35474;51.032;6.998;2022-10-30T16:08:20;20.04;60.98
52656;SHT85;35474;51.032;6.998;2022-10-30T16:10:48;19.98;61.23
52656;SHT85;35474;51.032;6.998;2022-10-30T16:13:20;19.91;61.33
52656;SHT85;35474;51.032;6.998;2022-10-30T16:15:50;19.80;61.65
52656;SHT85;35474;51.032;6.998;2022-10-30T16:20:56;19.64;62.20
52656;SHT85;35474;51.032;6.998;2022-10-30T16:23:28;19.59;62.18
52656;SHT85;35474;51.032;6.998;2022-10-30T16:25:56;19.55;62.41
52656;SHT85;35474;51.032;6.998;2022-10-30T16:28:30;19.43;62.82
52656;SHT85;35474;51.032;6.998;2022-10-30T16:31:01;19.31;63.10
52656;SHT85;35474;51.032;6.998;2022-10-30T16:33:31;19.31;63.25
52656;SHT85;35474;51.032;6.998;2022-10-30T16:36:03;19.16;63.79
52656;SHT85;35474;51.032;6.998;2022-10-30T16:38:33;19.01;64.33
52656;SHT85;35474;51.032;6.998;2022-10-30T16:41:05;18.98;64.65
52656;SHT85;35474;51.032;6.998;2022-10-30T16:43:33;18.75;65.54
52656;SHT85;35474;51.032;6.998;2022-10-30T16:46:15;18.74;65.85
52656;SHT85;35474;51.032;6.998;2022-10-30T16:48:52;18.53;66.06
52656;SHT85;35474;51.032;6.998;2022-10-30T16:51:22;18.25;67.35
52656;SHT85;35474;51.032;6.998;2022-10-30T16:53:49;18.20;67.92
52656;SHT85;35474;51.032;6.998;2022-10-30T16:58:51;18.02;68.89
52656;SHT85;35474;51.032;6.998;2022-10-30T17:01:25;18.15;68.41
52656;SHT85;35474;51.032;6.998;2022-10-30T17:03:53;18.19;68.14
52656;SHT85;35474;51.032;6.998;2022-10-30T17:06:35;17.92;69.12
52656;SHT85;35474;51.032;6.998;2022-10-30T17:09:06;17.72;70.01
52656;SHT85;35474;51.032;6.998;2022-10-30T17:11:39;17.71;70.18
52656;SHT85;35474;51.032;6.998;2022-10-30T17:14:17;17.57;70.94
52656;SHT85;35474;51.032;6.998;2022-10-30T17:16:55;17.50;71.52
52656;SHT85;35474;51.032;6.998;2022-10-30T17:21:55;17.43;71.29
52656;SHT85;35474;51.032;6.998;2022-10-30T17:24:27;17.43;71.36
52656;SHT85;35474;51.032;6.998;2022-10-30T17:26:58;17.34;71.74
52656;SHT85;35474;51.032;6.998;2022-10-30T17:32:02;17.31;71.76
52656;SHT85;35474;51.032;6.998;2022-10-30T17:34:39;17.47;70.87
52656;SHT85;35474;51.032;6.998;2022-10-30T17:37:06;17.46;70.96
52656;SHT85;35474;51.032;6.998;2022-10-30T17:39:32;17.50;70.63
52656;SHT85;35474;51.032;6.998;2022-10-30T17:41:59;17.50;70.50
52656;SHT85;35474;51.032;6.998;2022-10-30T17:44:25;17.41;70.72
52656;SHT85;35474;51.032;6.998;2022-10-30T17:46:56;17.37;71.00
52656;SHT85;35474;51.032;6.998;2022-10-30T17:49:23;17.33;71.03
52656;SHT85;35474;51.032;6.998;2022-10-30T17:51:54;17.17;71.73
52656;SHT85;35474;51.032;6.998;2022-10-30T17:54:20;17.23;71.76
52656;SHT85;35474;51.032;6.998;2022-10-30T17:56:47;17.13;72.34
52656;SHT85;35474;51.032;6.998;2022-10-30T17:59:14;17.09;72.64
52656;SHT85;35474;51.032;6.998;2022-10-30T18:01:40;17.11;72.66
52656;SHT85;35474;51.032;6.998;2022-10-30T18:04:10;17.02;73.17
52656;SHT85;35474;51.032;6.998;2022-10-30T18:06:46;16.86;73.52
52656;SHT85;35474;51.032;6.998;2022-10-30T18:09:12;16.92;73.17
52656;SHT85;35474;51.032;6.998;2022-10-30T18:11:39;16.90;73.03